sensor_id;sensor_type;location;lat;lon;timestamp;temperature;humidity
17284;DHT22;8760;52.248;20.952;2023-04-28T00:00:18;4.30;1.00
17284;DHT22;8760;52.248;20.952;2023-04-28T00:02:45;4.30;99.90
17284;DHT22;8760;52.248;20.952;2023-04-28T00:05:13;4.30;99.90
17284;DHT22;8760;52.248;20.952;2023-04-28T00:07:40;4.40;1.00
17284;DHT22;8760;52.248;20.952;2023-04-28T00:10:09;4.60;99.90
17284;DHT22;8760;52.248;20.952;2023-04-28T00:12:36;4.60;1.00
17284;DHT22;8760;52.248;20.952;2023-04-28T00:15:04;4.60;1.00
17284;DHT22;8760;52.248;20.952;2023-04-28T00:17:31;4.50;99.90
17284;DHT22;8760;52.248;20.952;2023-04-28T00:19:57;4.50;1.00
17284;DHT22;8760;52.248;20.952;2023-04-28T00:22:24;4.40;99.90
17284;DHT22;8760;52.248;20.952;2023-04-28T00:24:51;4.40;1.00
17284;DHT22;8760;52.248;20.952;2023-04-28T00:27:19;4.30;99.90
17284;DHT22;8760;52.248;20.952;2023-04-28T00:29:46;4.20;99.90
17284;DHT22;8760;52.248;20.952;2023-04-28T00:32:13;4.20;1.00
17284;DHT22;8760;52.248;20.952;2023-04-28T00:34:40;4.00;99.90
17284;DHT22;8760;52.248;20.952;2023-04-28T00:37:07;4.00;1.00
17284;DHT22;8760;52.248;20.952;2023-04-28T00:39:34;3.80;99.90
17284;DHT22;8760;52.248;20.952;2023-04-28T00:42:01;3.80;99.90
17284;DHT22;8760;52.248;20.952;2023-04-28T00:44:30;3.70;1.00
17284;DHT22;8760;52.248;20.952;2023-04-28T00:46:57;3.60;1.00
17284;DHT22;8760;52.248;20.952;2023-04-28T00:49:24;3.60;1.00
17284;DHT22;8760;52.248;20.952;2023-04-28T00:51:52;3.50;1.00
17284;DHT22;8760;52.248;20.952;2023-04-28T00:54:18;3.40;1.00
17284;DHT22;8760;52.248;20.952;2023-04-28T00:56:46;3.40;1.00
17284;DHT22;8760;52.248;20.952;2023-04-28T00:59:13;3.40;1.00
17284;DHT22;8760;52.248;20.952;2023-04-28T01:01:41;3.40;1.00
17284;DHT22;8760;52.248;20.952;2023-04-28T01:04:09;3.40;1.00
17284;DHT22;8760;52.248;20.952;2023-04-28T01:06:36;3.40;1.00
17284;DHT22;8760;52.248;20.952;2023-04-28T01:09:03;3.40;1.00
17284;DHT22;8760;52.248;20.952;2023-04-28T01:11:32;3.30;1.00
17284;DHT22;8760;52.248;20.952;2023-04-28T01:13:58;3.30;1.00
17284;DHT22;8760;52.248;20.952;2023-04-28T01:16:25;3.20;1.00
17284;DHT22;8760;52.248;20.952;2023-04-28T01:18:54;3.20;1.00
17284;DHT22;8760;52.248;20.952;2023-04-28T01:21:27;3.10;1.00
17284;DHT22;8760;52.248;20.952;2023-04-28T01:23:58;3.10;1.00
17284;DHT22;8760;52.248;20.952;2023-04-28T01:26:25;3.10;1.00
17284;DHT22;8760;52.248;20.952;2023-04-28T01:28:52;3.00;1.00
17284;DHT22;8760;52.248;20.952;2023-04-28T01:31:19;2.90;1.00
17284;DHT22;8760;52.248;20.952;2023-04-28T01:33:46;2.90;1.00
17284;DHT22;8760;52.248;20.952;2023-04-28T01:36:13;2.80;1.00
17284;DHT22;8760;52.248;20.952;2023-04-28T01:38:40;2.80;1.00
17284;DHT22;8760;52.248;20.952;2023-04-28T01:41:08;2.70;3.30
17284;DHT22;8760;52.248;20.952;2023-04-28T01:43:35;2.70;3.70
17284;DHT22;8760;52.248;20.952;2023-04-28T01:46:02;2.70;23.80
17284;DHT22;8760;52.248;20.952;2023-04-28T01:48:31;2.60;20.90
17284;DHT22;8760;52.248;20.952;2023-04-28T01:50:58;2.60;90.00
17284;DHT22;8760;52.248;20.952;2023-04-28T01:53:25;2.60;99.90
17284;DHT22;8760;52.248;20.952;2023-04-28T01:55:52;2.60;99.90
17284;DHT22;8760;52.248;20.952;2023-04-28T01:58:21;2.50;99.90
17284;DHT22;8760;52.248;20.952;2023-04-28T02:00:48;2.50;99.90
17284;DHT22;8760;52.248;20.952;2023-04-28T02:03:14;2.50;99.90
17284;DHT22;8760;52.248;20.952;2023-04-28T02:05:41;2.40;99.90
17284;DHT22;8760;52.248;20.952;2023-04-28T02:08:08;2.50;99.90
17284;DHT22;8760;52.248;20.952;2023-04-28T02:10:35;2.40;99.90
17284;DHT22;8760;52.248;20.952;2023-04-28T02:13:02;2.40;99.90
17284;DHT22;8760;52.248;20.952;2023-04-28T02:15:30;2.40;99.90
17284;DHT22;8760;52.248;20.952;2023-04-28T02:17:57;2.30;99.90
17284;DHT22;8760;52.248;20.952;2023-04-28T02:20:25;2.40;99.90
17284;DHT22;8760;52.248;20.952;2023-04-28T02:22:52;2.30;99.90
17284;DHT22;8760;52.248;20.952;2023-04-28T02:25:19;2.40;99.90
17284;DHT22;8760;52.248;20.952;2023-04-28T02:27:46;2.40;99.90
17284;DHT22;8760;52.248;20.952;2023-04-28T02:30:13;2.40;99.90
17284;DHT22;8760;52.248;20.952;2023-04-28T02:32:42;2.40;99.90
17284;DHT22;8760;52.248;20.952;2023-04-28T02:35:09;2.50;99.90
17284;DHT22;8760;52.248;20.952;2023-04-28T02:37:35;2.50;99.90
17284;DHT22;8760;52.248;20.952;2023-04-28T02:40:03;2.60;99.90
17284;DHT22;8760;52.248;20.952;2023-04-28T02:42:30;2.50;99.90
17284;DHT22;8760;52.248;20.952;2023-04-28T02:44:56;2.50;99.90
17284;DHT22;8760;52.248;20.952;2023-04-28T02:47:23;2.50;99.90
17284;DHT22;8760;52.248;20.952;2023-04-28T02:49:52;2.50;99.90
17284;DHT22;8760;52.248;20.952;2023-04-28T02:52:19;2.40;99.90
17284;DHT22;8760;52.248;20.952;2023-04-28T02:54:46;2.40;99.90
17284;DHT22;8760;52.248;20.952;2023-04-28T02:57:13;2.40;99.90
17284;DHT22;8760;52.248;20.952;2023-04-28T02:59:40;2.40;99.90
17284;DHT22;8760;52.248;20.952;2023-04-28T03:02:07;2.40;99.90
17284;DHT22;8760;52.248;20.952;2023-04-28T03:04:34;2.40;99.90
17284;DHT22;8760;52.248;20.952;2023-04-28T03:07:03;2.30;99.90
17284;DHT22;8760;52.248;20.952;2023-04-28T03:09:29;2.30;99.90
17284;DHT22;8760;52.248;20.952;2023-04-28T03:11:56;2.30;99.90
17284;DHT22;8760;52.248;20.952;2023-04-28T03:14:23;2.30;99.90
17284;DHT22;8760;52.248;20.952;2023-04-28T03:16:50;2.40;99.90
17284;DHT22;8760;52.248;20.952;2023-04-28T03:19:17;2.40;99.90
17284;DHT22;8760;52.248;20.952;2023-04-28T03:21:44;2.40;99.90
17284;DHT22;8760;52.248;20.952;2023-04-28T03:24:12;2.40;99.90
17284;DHT22;8760;52.248;20.952;2023-04-28T03:26:39;2.50;99.90
17284;DHT22;8760;52.248;20.952;2023-04-28T03:29:06;2.50;99.90
17284;DHT22;8760;52.248;20.952;2023-04-28T03:31:32;2.50;99.90
17284;DHT22;8760;52.248;20.952;2023-04-28T03:33:59;2.60;99.90
17284;DHT22;8760;52.248;20.952;2023-04-28T03:36:27;2.60;99.90
17284;DHT22;8760;52.248;20.952;2023-04-28T03:38:54;2.50;99.90
17284;DHT22;8760;52.248;20.952;2023-04-28T03:41:22;2.60;99.90
17284;DHT22;8760;52.248;20.952;2023-04-28T03:43:49;2.60;99.90
17284;DHT22;8760;52.248;20.952;2023-04-28T03:46:17;2.60;99.90
17284;DHT22;8760;52.248;20.952;2023-04-28T03:48:44;2.60;99.90
17284;DHT22;8760;52.248;20.952;2023-04-28T03:51:11;2.60;99.90
17284;DHT22;8760;52.248;20.952;2023-04-28T03:53:38;2.60;99.90
17284;DHT22;8760;52.248;20.952;2023-04-28T03:56:06;2.60;99.90
17284;DHT22;8760;52.248;20.952;2023-04-28T03:58:34;2.70;99.90
17284;DHT22;8760;52.248;20.952;2023-04-28T04:01:01;2.60;99.90
17284;DHT22;8760;52.248;20.952;2023-04-28T04:03:28;2.70;99.90
17284;DHT22;8760;52.248;20.952;2023-04-28T04:05:55;2.70;99.90
17284;DHT22;8760;52.248;20.952;2023-04-28T04:08:22;2.70;99.90
17284;DHT22;8760;52.248;20.952;2023-04-28T04:10:49;2.70;99.90
17284;DHT22;8760;52.248;20.952;2023-04-28T04:13:17;2.80;99.90
17284;DHT22;8760;52.248;20.952;2023-04-28T04:15:47;2.80;99.90
17284;DHT22;8760;52.248;20.952;2023-04-28T04:18:17;2.90;99.90
17284;DHT22;8760;52.248;20.952;2023-04-28T04:20:44;2.90;99.90
17284;DHT22;8760;52.248;20.952;2023-04-28T04:23:11;3.00;99.90
17284;DHT22;8760;52.248;20.952;2023-04-28T04:25:37;3.00;99.90
17284;DHT22;8760;52.248;20.952;2023-04-28T04:28:04;3.00;99.90
17284;DHT22;8760;52.248;20.952;2023-04-28T04:30:31;3.10;99.90
17284;DHT22;8760;52.248;20.952;2023-04-28T04:32:59;3.10;99.90
17284;DHT22;8760;52.248;20.952;2023-04-28T04:35:26;3.20;99.90
17284;DHT22;8760;52.248;20.952;2023-04-28T04:37:53;3.30;99.90
17284;DHT22;8760;52.248;20.952;2023-04-28T04:40:21;3.40;99.90
17284;DHT22;8760;52.248;20.952;2023-04-28T04:42:48;3.50;99.90
17284;DHT22;8760;52.248;20.952;2023-04-28T04:45:15;3.60;99.90
17284;DHT22;8760;52.248;20.952;2023-04-28T04:47:42;3.70;1.00
17284;DHT22;8760;52.248;20.952;2023-04-28T04:50:11;3.90;1.00
17284;DHT22;8760;52.248;20.952;2023-04-28T04:52:38;4.00;1.00
17284;DHT22;8760;52.248;20.952;2023-04-28T04:55:06;4.20;99.90
17284;DHT22;8760;52.248;20.952;2023-04-28T04:57:33;4.40;1.00
17284;DHT22;8760;52.248;20.952;2023-04-28T04:59:59;4.50;99.90
17284;DHT22;8760;52.248;20.952;2023-04-28T05:02:26;4.70;1.00
17284;DHT22;8760;52.248;20.952;2023-04-28T05:04:53;4.90;99.90
17284;DHT22;8760;52.248;20.952;2023-04-28T05:07:21;5.00;1.00
17284;DHT22;8760;52.248;20.952;2023-04-28T05:09:48;5.00;1.00
17284;DHT22;8760;52.248;20.952;2023-04-28T05:12:15;5.10;1.00
17284;DHT22;8760;52.248;20.952;2023-04-28T05:14:42;5.30;1.00
17284;DHT22;8760;52.248;20.952;2023-04-28T05:17:09;5.40;99.90
17284;DHT22;8760;52.248;20.952;2023-04-28T05:19:36;5.50;99.90
17284;DHT22;8760;52.248;20.952;2023-04-28T05:22:02;5.60;1.00
17284;DHT22;8760;52.248;20.952;2023-04-28T05:24:31;5.70;99.90
17284;DHT22;8760;52.248;20.952;2023-04-28T05:26:58;5.90;1.00
17284;DHT22;8760;52.248;20.952;2023-04-28T05:29:26;6.00;99.90
17284;DHT22;8760;52.248;20.952;2023-04-28T05:31:53;6.00;99.90
17284;DHT22;8760;52.248;20.952;2023-04-28T05:34:19;6.20;99.90
17284;DHT22;8760;52.248;20.952;2023-04-28T05:36:47;6.20;99.90
17284;DHT22;8760;52.248;20.952;2023-04-28T05:39:14;6.30;99.90
17284;DHT22;8760;52.248;20.952;2023-04-28T05:41:42;6.40;1.00
17284;DHT22;8760;52.248;20.952;2023-04-28T05:44:09;6.60;1.00
17284;DHT22;8760;52.248;20.952;2023-04-28T05:46:36;6.70;1.00
17284;DHT22;8760;52.248;20.952;2023-04-28T05:49:03;6.90;1.00
17284;DHT22;8760;52.248;20.952;2023-04-28T05:51:30;7.10;1.00
17284;DHT22;8760;52.248;20.952;2023-04-28T05:53:58;7.30;1.00
17284;DHT22;8760;52.248;20.952;2023-04-28T05:56:25;7.50;99.90
17284;DHT22;8760;52.248;20.952;2023-04-28T05:58:53;7.70;1.00
17284;DHT22;8760;52.248;20.952;2023-04-28T06:01:21;7.80;1.00
17284;DHT22;8760;52.248;20.952;2023-04-28T06:03:48;7.90;1.00
17284;DHT22;8760;52.248;20.952;2023-04-28T06:06:15;8.10;99.90
17284;DHT22;8760;52.248;20.952;2023-04-28T06:08:42;8.30;1.00
17284;DHT22;8760;52.248;20.952;2023-04-28T06:11:09;8.50;34.30
17284;DHT22;8760;52.248;20.952;2023-04-28T06:13:36;8.70;1.00
17284;DHT22;8760;52.248;20.952;2023-04-28T06:16:05;9.00;1.00
17284;DHT22;8760;52.248;20.952;2023-04-28T06:18:32;9.20;1.00
17284;DHT22;8760;52.248;20.952;2023-04-28T06:20:59;9.50;1.00
17284;DHT22;8760;52.248;20.952;2023-04-28T06:23:26;9.60;1.00
17284;DHT22;8760;52.248;20.952;2023-04-28T06:25:53;9.90;99.90
17284;DHT22;8760;52.248;20.952;2023-04-28T06:28:20;10.10;99.90
17284;DHT22;8760;52.248;20.952;2023-04-28T06:30:47;10.20;99.90
17284;DHT22;8760;52.248;20.952;2023-04-28T06:33:15;10.40;99.90
17284;DHT22;8760;52.248;20.952;2023-04-28T06:35:42;10.60;99.90
17284;DHT22;8760;52.248;20.952;2023-04-28T06:38:09;10.70;99.90
17284;DHT22;8760;52.248;20.952;2023-04-28T06:40:36;10.90;99.90
17284;DHT22;8760;52.248;20.952;2023-04-28T06:43:04;11.20;99.90
17284;DHT22;8760;52.248;20.952;2023-04-28T06:45:31;11.60;99.90
17284;DHT22;8760;52.248;20.952;2023-04-28T06:47:58;11.80;99.90
17284;DHT22;8760;52.248;20.952;2023-04-28T06:50:26;12.10;99.90
17284;DHT22;8760;52.248;20.952;2023-04-28T06:52:53;12.10;99.90
17284;DHT22;8760;52.248;20.952;2023-04-28T06:55:20;12.40;99.90
17284;DHT22;8760;52.248;20.952;2023-04-28T06:57:48;12.50;99.90
17284;DHT22;8760;52.248;20.952;2023-04-28T07:00:15;12.90;99.90
17284;DHT22;8760;52.248;20.952;2023-04-28T07:02:42;13.00;99.90
17284;DHT22;8760;52.248;20.952;2023-04-28T07:05:09;13.20;99.90
17284;DHT22;8760;52.248;20.952;2023-04-28T07:07:37;13.50;99.90
17284;DHT22;8760;52.248;20.952;2023-04-28T07:10:05;13.60;99.90
17284;DHT22;8760;52.248;20.952;2023-04-28T07:12:32;14.00;94.80
17284;DHT22;8760;52.248;20.952;2023-04-28T07:14:59;14.20;87.50
17284;DHT22;8760;52.248;20.952;2023-04-28T07:17:26;14.00;79.80
17284;DHT22;8760;52.248;20.952;2023-04-28T07:19:53;14.40;73.20
17284;DHT22;8760;52.248;20.952;2023-04-28T07:22:20;14.50;65.30
17284;DHT22;8760;52.248;20.952;2023-04-28T07:24:48;14.80;58.40
17284;DHT22;8760;52.248;20.952;2023-04-28T07:27:15;15.00;54.50
17284;DHT22;8760;52.248;20.952;2023-04-28T07:29:41;15.30;50.90
17284;DHT22;8760;52.248;20.952;2023-04-28T07:32:08;15.50;44.50
17284;DHT22;8760;52.248;20.952;2023-04-28T07:34:35;15.80;39.30
17284;DHT22;8760;52.248;20.952;2023-04-28T07:37:03;15.90;35.00
17284;DHT22;8760;52.248;20.952;2023-04-28T07:39:30;15.50;33.90
17284;DHT22;8760;52.248;20.952;2023-04-28T07:42:00;15.70;30.80
17284;DHT22;8760;52.248;20.952;2023-04-28T07:44:27;15.90;29.40
17284;DHT22;8760;52.248;20.952;2023-04-28T07:46:54;16.00;28.80
17284;DHT22;8760;52.248;20.952;2023-04-28T07:49:21;16.20;26.00
17284;DHT22;8760;52.248;20.952;2023-04-28T07:51:48;16.60;27.40
17284;DHT22;8760;52.248;20.952;2023-04-28T07:54:18;17.30;23.40
17284;DHT22;8760;52.248;20.952;2023-04-28T07:56:45;17.10;17.20
17284;DHT22;8760;52.248;20.952;2023-04-28T07:59:13;16.60;11.90
17284;DHT22;8760;52.248;20.952;2023-04-28T08:01:40;16.40;10.90
17284;DHT22;8760;52.248;20.952;2023-04-28T08:04:07;16.40;10.60
17284;DHT22;8760;52.248;20.952;2023-04-28T08:06:34;16.40;12.50
17284;DHT22;8760;52.248;20.952;2023-04-28T08:09:01;17.10;9.60
17284;DHT22;8760;52.248;20.952;2023-04-28T08:11:30;17.50;6.90
17284;DHT22;8760;52.248;20.952;2023-04-28T08:13:57;17.40;3.50
17284;DHT22;8760;52.248;20.952;2023-04-28T08:16:29;17.10;7.80
17284;DHT22;8760;52.248;20.952;2023-04-28T08:18:56;17.20;1.00
17284;DHT22;8760;52.248;20.952;2023-04-28T08:21:23;17.20;1.00
17284;DHT22;8760;52.248;20.952;2023-04-28T08:23:50;17.20;1.00
17284;DHT22;8760;52.248;20.952;2023-04-28T08:26:17;17.30;1.00
17284;DHT22;8760;52.248;20.952;2023-04-28T08:28:44;17.40;1.00
17284;DHT22;8760;52.248;20.952;2023-04-28T08:31:11;17.10;1.00
17284;DHT22;8760;52.248;20.952;2023-04-28T08:33:39;17.20;1.00
17284;DHT22;8760;52.248;20.952;2023-04-28T08:36:09;17.20;1.00
17284;DHT22;8760;52.248;20.952;2023-04-28T08:38:39;17.10;1.00
17284;DHT22;8760;52.248;20.952;2023-04-28T08:41:06;16.50;1.00
17284;DHT22;8760;52.248;20.952;2023-04-28T08:43:34;16.00;1.00
17284;DHT22;8760;52.248;20.952;2023-04-28T08:46:05;16.00;1.00
17284;DHT22;8760;52.248;20.952;2023-04-28T08:48:39;16.10;1.00
17284;DHT22;8760;52.248;20.952;2023-04-28T08:51:07;15.90;1.00
17284;DHT22;8760;52.248;20.952;2023-04-28T08:53:37;15.40;1.00
17284;DHT22;8760;52.248;20.952;2023-04-28T08:56:05;15.80;1.00
17284;DHT22;8760;52.248;20.952;2023-04-28T08:58:34;16.10;1.00
17284;DHT22;8760;52.248;20.952;2023-04-28T09:01:02;16.90;1.00
17284;DHT22;8760;52.248;20.952;2023-04-28T09:03:30;17.30;1.00
17284;DHT22;8760;52.248;20.952;2023-04-28T09:06:00;17.80;1.00
17284;DHT22;8760;52.248;20.952;2023-04-28T09:08:27;18.20;1.00
17284;DHT22;8760;52.248;20.952;2023-04-28T09:11:07;18.00;1.00
17284;DHT22;8760;52.248;20.952;2023-04-28T09:13:34;17.40;1.00
17284;DHT22;8760;52.248;20.952;2023-04-28T09:16:02;17.20;1.00
17284;DHT22;8760;52.248;20.952;2023-04-28T09:18:30;17.50;1.00
17284;DHT22;8760;52.248;20.952;2023-04-28T09:21:06;18.10;1.00
17284;DHT22;8760;52.248;20.952;2023-04-28T09:23:34;18.30;1.00
17284;DHT22;8760;52.248;20.952;2023-04-28T09:26:11;17.80;1.00
17284;DHT22;8760;52.248;20.952;2023-04-28T09:28:38;17.10;1.00
17284;DHT22;8760;52.248;20.952;2023-04-28T09:31:05;16.70;1.00
17284;DHT22;8760;52.248;20.952;2023-04-28T09:33:32;16.10;1.00
17284;DHT22;8760;52.248;20.952;2023-04-28T09:35:59;15.60;1.00
17284;DHT22;8760;52.248;20.952;2023-04-28T09:38:27;16.00;1.00
17284;DHT22;8760;52.248;20.952;2023-04-28T09:40:56;16.50;1.00
17284;DHT22;8760;52.248;20.952;2023-04-28T09:43:25;16.60;1.00
17284;DHT22;8760;52.248;20.952;2023-04-28T09:45:53;16.10;1.00
17284;DHT22;8760;52.248;20.952;2023-04-28T09:48:28;15.40;1.00
17284;DHT22;8760;52.248;20.952;2023-04-28T09:50:56;15.70;1.00
17284;DHT22;8760;52.248;20.952;2023-04-28T09:53:24;16.80;1.00
17284;DHT22;8760;52.248;20.952;2023-04-28T09:55:54;17.50;1.00
17284;DHT22;8760;52.248;20.952;2023-04-28T09:58:22;17.20;1.00
17284;DHT22;8760;52.248;20.952;2023-04-28T10:00:52;17.00;1.00
17284;DHT22;8760;52.248;20.952;2023-04-28T10:03:21;17.00;1.00
17284;DHT22;8760;52.248;20.952;2023-04-28T10:05:50;17.10;1.00
17284;DHT22;8760;52.248;20.952;2023-04-28T10:08:18;18.20;1.00
17284;DHT22;8760;52.248;20.952;2023-04-28T10:10:47;18.90;1.00
17284;DHT22;8760;52.248;20.952;2023-04-28T10:13:16;19.20;1.00
17284;DHT22;8760;52.248;20.952;2023-04-28T10:15:44;19.40;1.00
17284;DHT22;8760;52.248;20.952;2023-04-28T10:18:11;19.80;1.00
17284;DHT22;8760;52.248;20.952;2023-04-28T10:20:40;20.50;1.00
17284;DHT22;8760;52.248;20.952;2023-04-28T10:26:11;20.10;1.00
17284;DHT22;8760;52.248;20.952;2023-04-28T10:28:45;20.80;1.00
17284;DHT22;8760;52.248;20.952;2023-04-28T10:31:14;20.90;1.00
17284;DHT22;8760;52.248;20.952;2023-04-28T10:33:42;20.50;1.00
17284;DHT22;8760;52.248;20.952;2023-04-28T10:36:09;20.50;1.00
17284;DHT22;8760;52.248;20.952;2023-04-28T10:39:09;20.40;1.00
17284;DHT22;8760;52.248;20.952;2023-04-28T10:41:37;20.40;1.00
17284;DHT22;8760;52.248;20.952;2023-04-28T10:47:06;20.10;1.00
17284;DHT22;8760;52.248;20.952;2023-04-28T10:50:07;20.10;1.00
17284;DHT22;8760;52.248;20.952;2023-04-28T10:52:49;19.90;1.00
17284;DHT22;8760;52.248;20.952;2023-04-28T10:55:30;20.20;1.00
17284;DHT22;8760;52.248;20.952;2023-04-28T10:58:29;21.20;1.00
17284;DHT22;8760;52.248;20.952;2023-04-28T11:01:26;21.90;1.00
17284;DHT22;8760;52.248;20.952;2023-04-28T11:03:56;22.80;1.00
17284;DHT22;8760;52.248;20.952;2023-04-28T11:06:29;23.00;1.00
17284;DHT22;8760;52.248;20.952;2023-04-28T11:08:59;22.10;1.00
17284;DHT22;8760;52.248;20.952;2023-04-28T11:11:27;21.20;1.00
17284;DHT22;8760;52.248;20.952;2023-04-28T11:13:56;20.30;1.00
17284;DHT22;8760;52.248;20.952;2023-04-28T11:16:49;19.30;1.00
17284;DHT22;8760;52.248;20.952;2023-04-28T11:19:19;18.50;1.00
17284;DHT22;8760;52.248;20.952;2023-04-28T11:21:47;18.30;1.00
17284;DHT22;8760;52.248;20.952;2023-04-28T11:24:14;19.00;1.00
17284;DHT22;8760;52.248;20.952;2023-04-28T11:26:41;19.70;1.00
17284;DHT22;8760;52.248;20.952;2023-04-28T11:29:09;20.00;1.00
17284;DHT22;8760;52.248;20.952;2023-04-28T11:31:36;19.70;1.00
17284;DHT22;8760;52.248;20.952;2023-04-28T11:34:04;18.90;1.00
17284;DHT22;8760;52.248;20.952;2023-04-28T11:36:34;17.90;1.00
17284;DHT22;8760;52.248;20.952;2023-04-28T11:39:02;17.00;1.00
17284;DHT22;8760;52.248;20.952;2023-04-28T11:41:32;16.40;1.00
17284;DHT22;8760;52.248;20.952;2023-04-28T11:43:59;16.20;1.00
17284;DHT22;8760;52.248;20.952;2023-04-28T11:46:26;15.90;1.00
17284;DHT22;8760;52.248;20.952;2023-04-28T11:49:01;15.70;1.00
17284;DHT22;8760;52.248;20.952;2023-04-28T11:51:37;15.70;1.00
17284;DHT22;8760;52.248;20.952;2023-04-28T11:54:05;15.90;1.00
17284;DHT22;8760;52.248;20.952;2023-04-28T11:56:37;16.00;1.00
17284;DHT22;8760;52.248;20.952;2023-04-28T11:59:06;16.20;1.00
17284;DHT22;8760;52.248;20.952;2023-04-28T12:01:34;16.40;1.00
17284;DHT22;8760;52.248;20.952;2023-04-28T12:04:09;16.90;1.00
17284;DHT22;8760;52.248;20.952;2023-04-28T12:06:38;17.30;1.00
17284;DHT22;8760;52.248;20.952;2023-04-28T12:09:15;17.10;1.00
17284;DHT22;8760;52.248;20.952;2023-04-28T12:11:52;16.50;1.00
17284;DHT22;8760;52.248;20.952;2023-04-28T12:14:19;16.00;1.00
17284;DHT22;8760;52.248;20.952;2023-04-28T12:16:46;15.80;1.00
17284;DHT22;8760;52.248;20.952;2023-04-28T12:19:14;15.80;1.00
17284;DHT22;8760;52.248;20.952;2023-04-28T12:21:43;15.70;1.00
17284;DHT22;8760;52.248;20.952;2023-04-28T12:24:17;15.60;1.00
17284;DHT22;8760;52.248;20.952;2023-04-28T12:26:45;15.40;1.00
17284;DHT22;8760;52.248;20.952;2023-04-28T12:29:34;15.20;1.00
17284;DHT22;8760;52.248;20.952;2023-04-28T12:32:03;15.30;1.00
17284;DHT22;8760;52.248;20.952;2023-04-28T12:34:30;15.80;1.00
17284;DHT22;8760;52.248;20.952;2023-04-28T12:36:59;15.80;1.00
17284;DHT22;8760;52.248;20.952;2023-04-28T12:39:26;16.00;1.00
17284;DHT22;8760;52.248;20.952;2023-04-28T12:41:53;16.20;1.00
17284;DHT22;8760;52.248;20.952;2023-04-28T12:44:20;16.60;1.00
17284;DHT22;8760;52.248;20.952;2023-04-28T12:46:48;16.50;1.00
17284;DHT22;8760;52.248;20.952;2023-04-28T12:49:15;16.70;1.00
17284;DHT22;8760;52.248;20.952;2023-04-28T12:51:43;16.50;1.00
17284;DHT22;8760;52.248;20.952;2023-04-28T12:54:11;16.60;1.00
17284;DHT22;8760;52.248;20.952;2023-04-28T12:56:39;16.90;1.00
17284;DHT22;8760;52.248;20.952;2023-04-28T12:59:05;17.20;1.00
17284;DHT22;8760;52.248;20.952;2023-04-28T13:01:32;17.60;1.00
17284;DHT22;8760;52.248;20.952;2023-04-28T13:03:59;18.00;1.00
17284;DHT22;8760;52.248;20.952;2023-04-28T13:06:26;18.10;1.00
17284;DHT22;8760;52.248;20.952;2023-04-28T13:08:54;18.30;1.00
17284;DHT22;8760;52.248;20.952;2023-04-28T13:11:22;18.20;1.00
17284;DHT22;8760;52.248;20.952;2023-04-28T13:13:51;18.00;1.00
17284;DHT22;8760;52.248;20.952;2023-04-28T13:16:19;17.50;1.00
17284;DHT22;8760;52.248;20.952;2023-04-28T13:18:45;17.40;1.00
17284;DHT22;8760;52.248;20.952;2023-04-28T13:21:13;17.10;1.00
17284;DHT22;8760;52.248;20.952;2023-04-28T13:23:40;17.10;1.00
17284;DHT22;8760;52.248;20.952;2023-04-28T13:26:07;17.60;1.00
17284;DHT22;8760;52.248;20.952;2023-04-28T13:28:36;18.20;1.00
17284;DHT22;8760;52.248;20.952;2023-04-28T13:31:04;18.60;1.00
17284;DHT22;8760;52.248;20.952;2023-04-28T13:33:31;19.00;1.00
17284;DHT22;8760;52.248;20.952;2023-04-28T13:35:58;19.40;1.00
17284;DHT22;8760;52.248;20.952;2023-04-28T13:38:25;19.50;1.00
17284;DHT22;8760;52.248;20.952;2023-04-28T13:40:52;18.90;1.00
17284;DHT22;8760;52.248;20.952;2023-04-28T13:43:19;18.20;1.00
17284;DHT22;8760;52.248;20.952;2023-04-28T13:45:47;17.80;1.00
17284;DHT22;8760;52.248;20.952;2023-04-28T13:48:15;17.90;1.00
17284;DHT22;8760;52.248;20.952;2023-04-28T13:50:42;17.90;1.00
17284;DHT22;8760;52.248;20.952;2023-04-28T13:53:09;18.10;1.00
17284;DHT22;8760;52.248;20.952;2023-04-28T13:55:36;18.00;1.00
17284;DHT22;8760;52.248;20.952;2023-04-28T13:58:03;17.60;1.00
17284;DHT22;8760;52.248;20.952;2023-04-28T14:00:31;17.30;1.00
17284;DHT22;8760;52.248;20.952;2023-04-28T14:03:00;17.20;1.00
17284;DHT22;8760;52.248;20.952;2023-04-28T14:05:27;17.10;1.00
17284;DHT22;8760;52.248;20.952;2023-04-28T14:07:54;17.30;1.00
17284;DHT22;8760;52.248;20.952;2023-04-28T14:10:21;17.00;1.00
17284;DHT22;8760;52.248;20.952;2023-04-28T14:12:48;17.20;1.00
17284;DHT22;8760;52.248;20.952;2023-04-28T14:15:15;17.00;1.00
17284;DHT22;8760;52.248;20.952;2023-04-28T14:17:43;17.10;1.00
17284;DHT22;8760;52.248;20.952;2023-04-28T14:20:11;17.20;1.00
17284;DHT22;8760;52.248;20.952;2023-04-28T14:22:39;17.30;1.00
17284;DHT22;8760;52.248;20.952;2023-04-28T14:25:06;17.40;1.00
17284;DHT22;8760;52.248;20.952;2023-04-28T14:27:33;17.50;1.00
17284;DHT22;8760;52.248;20.952;2023-04-28T14:30:00;17.70;1.00
17284;DHT22;8760;52.248;20.952;2023-04-28T14:32:28;17.90;1.00
17284;DHT22;8760;52.248;20.952;2023-04-28T14:34:55;17.90;1.00
17284;DHT22;8760;52.248;20.952;2023-04-28T14:37:23;17.90;1.00
17284;DHT22;8760;52.248;20.952;2023-04-28T14:39:50;17.70;1.00
17284;DHT22;8760;52.248;20.952;2023-04-28T14:42:17;17.60;1.00
17284;DHT22;8760;52.248;20.952;2023-04-28T14:44:45;17.60;1.00
17284;DHT22;8760;52.248;20.952;2023-04-28T14:47:12;17.60;1.00
17284;DHT22;8760;52.248;20.952;2023-04-28T14:49:39;17.60;1.00
17284;DHT22;8760;52.248;20.952;2023-04-28T14:52:06;17.70;1.00
17284;DHT22;8760;52.248;20.952;2023-04-28T14:54:34;17.70;1.00
17284;DHT22;8760;52.248;20.952;2023-04-28T14:57:01;17.60;1.00
17284;DHT22;8760;52.248;20.952;2023-04-28T14:59:28;17.40;1.00
17284;DHT22;8760;52.248;20.952;2023-04-28T15:01:56;17.30;1.00
17284;DHT22;8760;52.248;20.952;2023-04-28T15:04:23;17.30;1.00
17284;DHT22;8760;52.248;20.952;2023-04-28T15:06:55;17.20;1.00
17284;DHT22;8760;52.248;20.952;2023-04-28T15:09:24;16.70;1.00
17284;DHT22;8760;52.248;20.952;2023-04-28T15:11:52;16.50;1.00
17284;DHT22;8760;52.248;20.952;2023-04-28T15:14:19;16.50;1.00
17284;DHT22;8760;52.248;20.952;2023-04-28T15:16:46;16.40;1.00
17284;DHT22;8760;52.248;20.952;2023-04-28T15:19:13;16.50;1.00
17284;DHT22;8760;52.248;20.952;2023-04-28T15:21:40;16.60;1.00
17284;DHT22;8760;52.248;20.952;2023-04-28T15:24:07;16.50;1.00
17284;DHT22;8760;52.248;20.952;2023-04-28T15:26:34;16.40;1.00
17284;DHT22;8760;52.248;20.952;2023-04-28T15:29:03;16.50;1.00
17284;DHT22;8760;52.248;20.952;2023-04-28T15:31:30;16.70;1.00
17284;DHT22;8760;52.248;20.952;2023-04-28T15:33:57;16.80;1.00
17284;DHT22;8760;52.248;20.952;2023-04-28T15:36:24;16.70;1.00
17284;DHT22;8760;52.248;20.952;2023-04-28T15:38:51;16.60;1.00
17284;DHT22;8760;52.248;20.952;2023-04-28T15:41:19;16.40;1.00
17284;DHT22;8760;52.248;20.952;2023-04-28T15:43:47;16.20;1.00
17284;DHT22;8760;52.248;20.952;2023-04-28T15:46:16;15.70;1.00
17284;DHT22;8760;52.248;20.952;2023-04-28T15:48:43;15.60;1.00
17284;DHT22;8760;52.248;20.952;2023-04-28T15:51:10;15.50;1.00
17284;DHT22;8760;52.248;20.952;2023-04-28T15:53:37;15.50;1.00
17284;DHT22;8760;52.248;20.952;2023-04-28T15:56:04;15.20;1.00
17284;DHT22;8760;52.248;20.952;2023-04-28T15:58:31;15.20;1.00